sensor_id;sensor_type;location;lat;lon;timestamp;pressure;altitude;pressure_sealevel;temperature;humidity
53916;BME280;39827;49.652;18.770;2023-04-15T00:00:53;73528.34;;;-149.71;79.38
53916;BME280;39827;49.652;18.770;2023-04-15T00:03:19;73550.44;;;-149.71;80.29
53916;BME280;39827;49.652;18.770;2023-04-15T00:05:44;73542.41;;;-149.71;79.86
53916;BME280;39827;49.652;18.770;2023-04-15T00:08:10;73534.38;;;-149.71;79.11
53916;BME280;39827;49.652;18.770;2023-04-15T00:10:35;73564.50;;;-149.71;80.24
53916;BME280;39827;49.652;18.770;2023-04-15T00:13:01;73588.59;;;-149.71;80.83
53916;BME280;39827;49.652;18.770;2023-04-15T00:15:27;73580.56;;;-149.71;80.87
53916;BME280;39827;49.652;18.770;2023-04-15T00:17:52;73566.50;;;-149.71;80.92
53916;BME280;39827;49.652;18.770;2023-04-15T00:20:18;73554.47;;;-149.71;80.67
53916;BME280;39827;49.652;18.770;2023-04-15T00:22:43;73544.41;;;-149.71;79.61
53916;BME280;39827;49.652;18.770;2023-04-15T00:25:08;73578.56;;;-149.71;78.67
53916;BME280;39827;49.652;18.770;2023-04-15T00:27:34;73606.69;;;-149.71;80.14
53916;BME280;39827;49.652;18.770;2023-04-15T00:30:00;73584.59;;;-149.71;79.92
53916;BME280;39827;49.652;18.770;2023-04-15T00:32:26;73606.69;;;-149.71;79.46
53916;BME280;39827;49.652;18.770;2023-04-15T00:34:51;73612.72;;;-149.71;79.15
53916;BME280;39827;49.652;18.770;2023-04-15T00:37:16;73632.78;;;-149.71;80.05
53916;BME280;39827;49.652;18.770;2023-04-15T00:39:42;73626.78;;;-149.71;79.64
53916;BME280;39827;49.652;18.770;2023-04-15T00:42:09;73666.94;;;-149.71;80.09
53916;BME280;39827;49.652;18.770;2023-04-15T00:44:34;73687.03;;;-149.71;80.72
53916;BME280;39827;49.652;18.770;2023-04-15T00:47:00;73689.03;;;-149.71;81.61
53916;BME280;39827;49.652;18.770;2023-04-15T00:49:27;73681.00;;;-149.71;81.57
53916;BME280;39827;49.652;18.770;2023-04-15T00:51:53;73683.03;;;-149.71;80.67
53916;BME280;39827;49.652;18.770;2023-04-15T00:54:18;73674.97;;;-149.71;80.32
53916;BME280;39827;49.652;18.770;2023-04-15T00:56:44;73715.16;;;-149.71;80.77
53916;BME280;39827;49.652;18.770;2023-04-15T00:59:09;73725.22;;;-149.71;81.22
53916;BME280;39827;49.652;18.770;2023-04-15T01:01:36;73711.13;;;-149.71;81.72
53916;BME280;39827;49.652;18.770;2023-04-15T01:04:03;73735.25;;;-149.71;82.06
53916;BME280;39827;49.652;18.770;2023-04-15T01:06:30;73743.28;;;-149.71;81.67
53916;BME280;39827;49.652;18.770;2023-04-15T01:08:57;73719.19;;;-149.71;81.36
53916;BME280;39827;49.652;18.770;2023-04-15T01:11:23;73689.03;;;-149.71;80.61
53916;BME280;39827;49.652;18.770;2023-04-15T01:13:50;73697.09;;;-149.71;81.00
53916;BME280;39827;49.652;18.770;2023-04-15T01:16:17;73672.97;;;-149.71;79.85
53916;BME280;39827;49.652;18.770;2023-04-15T01:18:43;73656.91;;;-149.71;79.38
53916;BME280;39827;49.652;18.770;2023-04-15T01:21:09;73689.03;;;-149.71;79.74
53916;BME280;39827;49.652;18.770;2023-04-15T01:23:36;73656.91;;;-149.71;78.86
53916;BME280;39827;49.652;18.770;2023-04-15T01:26:03;73636.81;;;-149.71;77.88
53916;BME280;39827;49.652;18.770;2023-04-15T01:28:29;73660.91;;;-149.71;77.76
53916;BME280;39827;49.652;18.770;2023-04-15T01:31:09;73660.91;;;-149.71;77.77
53916;BME280;39827;49.652;18.770;2023-04-15T01:33:36;73687.03;;;-149.71;78.12
53916;BME280;39827;49.652;18.770;2023-04-15T01:36:02;73711.13;;;-149.71;78.57
53916;BME280;39827;49.652;18.770;2023-04-15T01:38:28;73763.38;;;-149.71;78.63
53916;BME280;39827;49.652;18.770;2023-04-15T01:40:54;73759.34;;;-149.71;79.65
53916;BME280;39827;49.652;18.770;2023-04-15T01:43:19;73751.31;;;-149.71;79.76
53916;BME280;39827;49.652;18.770;2023-04-15T01:45:44;73733.25;;;-149.71;78.79
53916;BME280;39827;49.652;18.770;2023-04-15T01:48:11;73755.34;;;-149.71;79.45
53916;BME280;39827;49.652;18.770;2023-04-15T01:50:36;73787.47;;;-149.71;80.32
53916;BME280;39827;49.652;18.770;2023-04-15T01:53:02;73797.53;;;-149.71;81.79
53916;BME280;39827;49.652;18.770;2023-04-15T01:55:27;73759.34;;;-149.71;81.13
53916;BME280;39827;49.652;18.770;2023-04-15T01:57:53;73737.25;;;-149.71;79.25
53916;BME280;39827;49.652;18.770;2023-04-15T02:00:18;73781.47;;;-149.71;79.89
53916;BME280;39827;49.652;18.770;2023-04-15T02:02:44;73771.41;;;-149.71;80.10
53916;BME280;39827;49.652;18.770;2023-04-15T02:05:09;73791.50;;;-149.71;80.32
53916;BME280;39827;49.652;18.770;2023-04-15T02:07:35;73789.50;;;-149.71;79.63
53916;BME280;39827;49.652;18.770;2023-04-15T02:10:01;73817.63;;;-149.71;79.47
53916;BME280;39827;49.652;18.770;2023-04-15T02:12:27;73817.63;;;-149.71;79.51
53916;BME280;39827;49.652;18.770;2023-04-15T02:14:53;73833.69;;;-149.71;79.42
53916;BME280;39827;49.652;18.770;2023-04-15T02:17:18;73859.81;;;-149.71;80.27
53916;BME280;39827;49.652;18.770;2023-04-15T02:19:43;73849.75;;;-149.71;80.15
53916;BME280;39827;49.652;18.770;2023-04-15T02:22:09;73867.84;;;-149.71;80.35
53916;BME280;39827;49.652;18.770;2023-04-15T02:24:37;73863.81;;;-149.71;80.09
53916;BME280;39827;49.652;18.770;2023-04-15T02:27:02;73867.84;;;-149.71;80.61
53916;BME280;39827;49.652;18.770;2023-04-15T02:29:30;73845.75;;;-149.71;80.43
53916;BME280;39827;49.652;18.770;2023-04-15T02:31:56;73853.78;;;-149.71;80.71
53916;BME280;39827;49.652;18.770;2023-04-15T02:34:21;73845.75;;;-149.71;80.11
53916;BME280;39827;49.652;18.770;2023-04-15T02:36:47;73865.81;;;-149.71;80.00
53916;BME280;39827;49.652;18.770;2023-04-15T02:39:13;73875.88;;;-149.71;80.63
53916;BME280;39827;49.652;18.770;2023-04-15T02:41:41;73875.88;;;-149.71;80.83
53916;BME280;39827;49.652;18.770;2023-04-15T02:44:08;73865.81;;;-149.71;80.07
53916;BME280;39827;49.652;18.770;2023-04-15T02:46:33;73851.75;;;-149.71;79.77
53916;BME280;39827;49.652;18.770;2023-04-15T02:48:59;73855.78;;;-149.71;79.42
53916;BME280;39827;49.652;18.770;2023-04-15T02:51:29;73839.72;;;-149.71;79.36
53916;BME280;39827;49.652;18.770;2023-04-15T02:53:56;73849.75;;;-149.71;79.34
53916;BME280;39827;49.652;18.770;2023-04-15T02:56:22;73859.81;;;-149.71;79.57
53916;BME280;39827;49.652;18.770;2023-04-15T02:58:47;73863.81;;;-149.71;80.07
53916;BME280;39827;49.652;18.770;2023-04-15T03:01:14;73833.69;;;-149.71;79.22
53916;BME280;39827;49.652;18.770;2023-04-15T03:03:40;73825.66;;;-149.71;78.39
53916;BME280;39827;49.652;18.770;2023-04-15T03:06:05;73861.81;;;-149.71;78.85
53916;BME280;39827;49.652;18.770;2023-04-15T03:08:31;73879.88;;;-149.71;79.81
53916;BME280;39827;49.652;18.770;2023-04-15T03:10:57;73863.81;;;-149.71;79.27
53916;BME280;39827;49.652;18.770;2023-04-15T03:13:24;73908.00;;;-149.71;80.05
53916;BME280;39827;49.652;18.770;2023-04-15T03:15:50;73895.97;;;-149.71;80.03
53916;BME280;39827;49.652;18.770;2023-04-15T03:18:16;73865.81;;;-149.71;79.67
53916;BME280;39827;49.652;18.770;2023-04-15T03:20:41;73881.91;;;-149.71;79.20
53916;BME280;39827;49.652;18.770;2023-04-15T03:23:06;73889.94;;;-149.71;79.41
53916;BME280;39827;49.652;18.770;2023-04-15T03:25:32;73897.97;;;-149.71;79.50
53916;BME280;39827;49.652;18.770;2023-04-15T03:27:58;73899.97;;;-149.71;80.37
53916;BME280;39827;49.652;18.770;2023-04-15T03:30:24;73889.94;;;-149.71;79.71
53916;BME280;39827;49.652;18.770;2023-04-15T03:32:49;73885.91;;;-149.71;79.42
53916;BME280;39827;49.652;18.770;2023-04-15T03:35:15;73902.00;;;-149.71;79.54
53916;BME280;39827;49.652;18.770;2023-04-15T03:37:41;73904.00;;;-149.71;80.50
53916;BME280;39827;49.652;18.770;2023-04-15T03:40:07;73906.00;;;-149.71;80.77
53916;BME280;39827;49.652;18.770;2023-04-15T03:42:32;73893.94;;;-149.71;80.91
53916;BME280;39827;49.652;18.770;2023-04-15T03:44:58;73859.81;;;-149.71;79.75
53916;BME280;39827;49.652;18.770;2023-04-15T03:47:23;73895.97;;;-149.71;79.02
53916;BME280;39827;49.652;18.770;2023-04-15T03:49:49;73922.06;;;-149.71;80.05
53916;BME280;39827;49.652;18.770;2023-04-15T03:52:14;73908.00;;;-149.71;79.99
53916;BME280;39827;49.652;18.770;2023-04-15T03:54:40;73899.97;;;-149.71;80.26
53916;BME280;39827;49.652;18.770;2023-04-15T03:57:05;73895.97;;;-149.71;80.11
53916;BME280;39827;49.652;18.770;2023-04-15T03:59:31;73871.84;;;-149.71;79.40
53916;BME280;39827;49.652;18.770;2023-04-15T04:01:56;73885.91;;;-149.71;79.18
53916;BME280;39827;49.652;18.770;2023-04-15T04:04:21;73887.94;;;-149.71;79.33
53916;BME280;39827;49.652;18.770;2023-04-15T04:06:47;73889.94;;;-149.71;79.74
53916;BME280;39827;49.652;18.770;2023-04-15T04:09:12;73881.91;;;-149.71;79.83
53916;BME280;39827;49.652;18.770;2023-04-15T04:11:37;73885.91;;;-149.71;79.70
53916;BME280;39827;49.652;18.770;2023-04-15T04:14:03;73899.97;;;-149.71;80.00
53916;BME280;39827;49.652;18.770;2023-04-15T04:16:29;73897.97;;;-149.71;80.71
53916;BME280;39827;49.652;18.770;2023-04-15T04:18:54;73865.81;;;-149.71;80.21
53916;BME280;39827;49.652;18.770;2023-04-15T04:21:20;73869.84;;;-149.71;78.77
53916;BME280;39827;49.652;18.770;2023-04-15T04:23:45;73871.84;;;-149.71;79.25
53916;BME280;39827;49.652;18.770;2023-04-15T04:26:11;73883.91;;;-149.71;79.49
53916;BME280;39827;49.652;18.770;2023-04-15T04:28:36;73889.94;;;-149.71;78.69
53916;BME280;39827;49.652;18.770;2023-04-15T04:31:05;73897.97;;;-149.71;79.49
53916;BME280;39827;49.652;18.770;2023-04-15T04:33:30;73863.81;;;-149.71;78.40
53916;BME280;39827;49.652;18.770;2023-04-15T04:35:56;73893.94;;;-149.71;78.36
53916;BME280;39827;49.652;18.770;2023-04-15T04:38:21;73881.91;;;-149.71;78.60
53916;BME280;39827;49.652;18.770;2023-04-15T04:40:47;73873.88;;;-149.71;78.76
53916;BME280;39827;49.652;18.770;2023-04-15T04:43:12;73877.88;;;-149.71;78.45
53916;BME280;39827;49.652;18.770;2023-04-15T04:45:38;73893.94;;;-149.71;78.77
53916;BME280;39827;49.652;18.770;2023-04-15T04:48:04;73895.97;;;-149.71;78.69
53916;BME280;39827;49.652;18.770;2023-04-15T04:50:31;73895.97;;;-149.71;78.63
53916;BME280;39827;49.652;18.770;2023-04-15T04:52:57;73914.03;;;-149.71;78.98
53916;BME280;39827;49.652;18.770;2023-04-15T04:55:22;73914.03;;;-149.71;79.49
53916;BME280;39827;49.652;18.770;2023-04-15T04:57:47;73889.94;;;-149.71;79.04
53916;BME280;39827;49.652;18.770;2023-04-15T05:00:13;73908.00;;;-149.71;79.17
53916;BME280;39827;49.652;18.770;2023-04-15T05:02:39;73904.00;;;-149.71;79.36
53916;BME280;39827;49.652;18.770;2023-04-15T05:05:06;73877.88;;;-149.71;79.54
53916;BME280;39827;49.652;18.770;2023-04-15T05:07:32;73871.84;;;-149.71;79.28
53916;BME280;39827;49.652;18.770;2023-04-15T05:09:57;73902.00;;;-149.71;79.64
53916;BME280;39827;49.652;18.770;2023-04-15T05:12:22;73863.81;;;-149.71;79.33
53916;BME280;39827;49.652;18.770;2023-04-15T05:14:48;73867.84;;;-149.71;78.36
53916;BME280;39827;49.652;18.770;2023-04-15T05:17:13;73877.88;;;-149.71;78.04
53916;BME280;39827;49.652;18.770;2023-04-15T05:19:39;73857.78;;;-149.71;77.96
53916;BME280;39827;49.652;18.770;2023-04-15T05:22:04;73861.81;;;-149.71;77.97
53916;BME280;39827;49.652;18.770;2023-04-15T05:24:30;73837.69;;;-149.71;77.50
53916;BME280;39827;49.652;18.770;2023-04-15T05:26:55;73811.59;;;-149.71;76.85
53916;BME280;39827;49.652;18.770;2023-04-15T05:29:21;73765.38;;;-149.71;75.82
53916;BME280;39827;49.652;18.770;2023-04-15T05:31:46;73733.25;;;-149.71;74.02
53916;BME280;39827;49.652;18.770;2023-04-15T05:34:11;73733.25;;;-149.71;75.26
53916;BME280;39827;49.652;18.770;2023-04-15T05:36:37;73636.81;;;-149.71;73.17
53916;BME280;39827;49.652;18.770;2023-04-15T05:39:02;73590.63;;;-149.71;69.39
53916;BME280;39827;49.652;18.770;2023-04-15T05:41:28;73604.69;;;-149.71;70.36
53916;BME280;39827;49.652;18.770;2023-04-15T05:43:54;73468.06;;;-149.71;66.90
53916;BME280;39827;49.652;18.770;2023-04-15T05:46:19;73391.75;;;-149.71;63.85
53916;BME280;39827;49.652;18.770;2023-04-15T05:48:44;73323.44;;;-149.71;61.99
53916;BME280;39827;49.652;18.770;2023-04-15T05:51:10;73219.00;;;-149.71;56.82
53916;BME280;39827;49.652;18.770;2023-04-15T05:53:35;73110.53;;;-149.71;55.86
53916;BME280;39827;49.652;18.770;2023-04-15T05:56:01;73068.34;;;-149.71;54.65
53916;BME280;39827;49.652;18.770;2023-04-15T05:58:26;73114.56;;;-149.71;51.45
53916;BME280;39827;49.652;18.770;2023-04-15T06:00:52;73160.75;;;-149.71;52.76
53916;BME280;39827;49.652;18.770;2023-04-15T06:03:17;73190.88;;;-149.71;55.48
53916;BME280;39827;49.652;18.770;2023-04-15T06:05:43;73166.78;;;-149.71;56.56
53916;BME280;39827;49.652;18.770;2023-04-15T06:08:09;73082.41;;;-149.71;55.39
53916;BME280;39827;49.652;18.770;2023-04-15T06:10:35;73016.13;;;-149.71;52.80
53916;BME280;39827;49.652;18.770;2023-04-15T06:13:02;72941.81;;;-149.71;48.69
53916;BME280;39827;49.652;18.770;2023-04-15T06:15:28;72937.81;;;-149.71;46.94
53916;BME280;39827;49.652;18.770;2023-04-15T06:17:54;72863.50;;;-149.71;44.45
53916;BME280;39827;49.652;18.770;2023-04-15T06:20:20;72789.19;;;-149.71;42.41
53916;BME280;39827;49.652;18.770;2023-04-15T06:22:45;72811.28;;;-149.71;41.66
53916;BME280;39827;49.652;18.770;2023-04-15T06:25:11;72781.16;;;-149.71;41.05
53916;BME280;39827;49.652;18.770;2023-04-15T06:27:36;72769.09;;;-149.71;40.93
53916;BME280;39827;49.652;18.770;2023-04-15T06:30:02;72765.09;;;-149.71;40.65
53916;BME280;39827;49.652;18.770;2023-04-15T06:32:28;72720.91;;;-149.71;39.06
53916;BME280;39827;49.652;18.770;2023-04-15T06:34:53;72789.19;;;-149.71;40.06
53916;BME280;39827;49.652;18.770;2023-04-15T06:37:19;72740.97;;;-149.71;40.19
53916;BME280;39827;49.652;18.770;2023-04-15T06:39:44;72769.09;;;-149.71;39.08
53916;BME280;39827;49.652;18.770;2023-04-15T06:42:10;72710.84;;;-149.71;39.00
53916;BME280;39827;49.652;18.770;2023-04-15T06:44:36;72644.56;;;-149.71;38.06
53916;BME280;39827;49.652;18.770;2023-04-15T06:47:02;72759.06;;;-149.71;38.65
53916;BME280;39827;49.652;18.770;2023-04-15T06:49:27;72668.69;;;-149.71;38.67
53916;BME280;39827;49.652;18.770;2023-04-15T06:51:53;72799.22;;;-149.71;39.38
53916;BME280;39827;49.652;18.770;2023-04-15T06:54:18;72632.53;;;-149.71;38.13
53916;BME280;39827;49.652;18.770;2023-04-15T06:56:43;72738.97;;;-149.71;38.72
53916;BME280;39827;49.652;18.770;2023-04-15T06:59:09;72634.53;;;-149.71;37.56
53916;BME280;39827;49.652;18.770;2023-04-15T07:01:35;72740.97;;;-149.71;38.66
53916;BME280;39827;49.652;18.770;2023-04-15T07:04:00;72718.88;;;-149.71;38.81
53916;BME280;39827;49.652;18.770;2023-04-15T07:06:26;72658.63;;;-149.71;38.05
53916;BME280;39827;49.652;18.770;2023-04-15T07:08:52;72777.13;;;-149.71;39.39
53916;BME280;39827;49.652;18.770;2023-04-15T07:11:17;72941.81;;;-149.71;41.08
53916;BME280;39827;49.652;18.770;2023-04-15T07:13:43;73010.13;;;-149.71;42.45
53916;BME280;39827;49.652;18.770;2023-04-15T07:16:09;72967.94;;;-149.71;42.02
53916;BME280;39827;49.652;18.770;2023-04-15T07:18:34;72803.25;;;-149.71;40.39
53916;BME280;39827;49.652;18.770;2023-04-15T07:20:59;72618.47;;;-149.71;38.17
53916;BME280;39827;49.652;18.770;2023-04-15T07:23:25;72773.13;;;-149.71;38.92
53916;BME280;39827;49.652;18.770;2023-04-15T07:25:51;72821.31;;;-149.71;40.71
53916;BME280;39827;49.652;18.770;2023-04-15T07:28:17;72865.50;;;-149.71;40.27
53916;BME280;39827;49.652;18.770;2023-04-15T07:30:42;72823.31;;;-149.71;40.57
53916;BME280;39827;49.652;18.770;2023-04-15T07:33:07;72837.38;;;-149.71;40.11
53916;BME280;39827;49.652;18.770;2023-04-15T07:35:33;72698.81;;;-149.71;39.50
53916;BME280;39827;49.652;18.770;2023-04-15T07:37:58;72650.59;;;-149.71;38.38
53916;BME280;39827;49.652;18.770;2023-04-15T07:40:24;72554.22;;;-149.71;37.57
53916;BME280;39827;49.652;18.770;2023-04-15T07:42:49;72714.88;;;-149.71;38.91
53916;BME280;39827;49.652;18.770;2023-04-15T07:45:15;72845.41;;;-149.71;39.57
53916;BME280;39827;49.652;18.770;2023-04-15T07:47:41;72686.75;;;-149.71;38.50
53916;BME280;39827;49.652;18.770;2023-04-15T07:50:08;72743.00;;;-149.71;38.27
53916;BME280;39827;49.652;18.770;2023-04-15T07:52:34;72718.88;;;-149.71;38.56
53916;BME280;39827;49.652;18.770;2023-04-15T07:55:07;72568.25;;;-149.71;36.39
53916;BME280;39827;49.652;18.770;2023-04-15T07:57:33;72554.22;;;-149.71;35.71
53916;BME280;39827;49.652;18.770;2023-04-15T07:59:59;72423.66;;;-149.71;35.75
53916;BME280;39827;49.652;18.770;2023-04-15T08:02:28;72497.97;;;-149.71;36.28
53916;BME280;39827;49.652;18.770;2023-04-15T08:04:53;72397.56;;;-149.71;34.93
53916;BME280;39827;49.652;18.770;2023-04-15T08:07:19;72556.22;;;-149.71;35.97
53916;BME280;39827;49.652;18.770;2023-04-15T08:09:44;72636.53;;;-149.71;36.83
53916;BME280;39827;49.652;18.770;2023-04-15T08:12:10;72604.41;;;-149.71;36.99
53916;BME280;39827;49.652;18.770;2023-04-15T08:14:37;72622.50;;;-149.71;36.91
53916;BME280;39827;49.652;18.770;2023-04-15T08:17:03;72564.25;;;-149.71;34.88
53916;BME280;39827;49.652;18.770;2023-04-15T08:19:29;72572.28;;;-149.71;34.63
53916;BME280;39827;49.652;18.770;2023-04-15T08:21:55;72522.06;;;-149.71;35.13
53916;BME280;39827;49.652;18.770;2023-04-15T08:24:21;72592.38;;;-149.71;35.47
53916;BME280;39827;49.652;18.770;2023-04-15T08:26:46;72728.94;;;-149.71;36.12
53916;BME280;39827;49.652;18.770;2023-04-15T08:29:12;72745.00;;;-149.71;37.46
53916;BME280;39827;49.652;18.770;2023-04-15T08:31:37;72837.38;;;-149.71;38.03
53916;BME280;39827;49.652;18.770;2023-04-15T08:34:03;72865.50;;;-149.71;37.71
53916;BME280;39827;49.652;18.770;2023-04-15T08:36:29;72831.34;;;-149.71;37.61
53916;BME280;39827;49.652;18.770;2023-04-15T08:38:54;72769.09;;;-149.71;38.50
53916;BME280;39827;49.652;18.770;2023-04-15T08:41:21;72747.00;;;-149.71;37.04
53916;BME280;39827;49.652;18.770;2023-04-15T08:43:55;72652.63;;;-149.71;36.15
53916;BME280;39827;49.652;18.770;2023-04-15T08:46:22;72612.44;;;-149.71;35.19
53916;BME280;39827;49.652;18.770;2023-04-15T08:48:47;72688.75;;;-149.71;37.04
53916;BME280;39827;49.652;18.770;2023-04-15T08:51:13;72686.75;;;-149.71;37.07
53916;BME280;39827;49.652;18.770;2023-04-15T08:53:42;72700.81;;;-149.71;36.99
53916;BME280;39827;49.652;18.770;2023-04-15T08:56:08;72718.88;;;-149.71;36.91
53916;BME280;39827;49.652;18.770;2023-04-15T08:58:36;72787.19;;;-149.71;36.80
53916;BME280;39827;49.652;18.770;2023-04-15T09:01:02;72821.31;;;-149.71;36.03
53916;BME280;39827;49.652;18.770;2023-04-15T09:03:29;72795.22;;;-149.71;37.10
53916;BME280;39827;49.652;18.770;2023-04-15T09:05:55;72859.47;;;-149.71;37.74
53916;BME280;39827;49.652;18.770;2023-04-15T09:08:21;72765.09;;;-149.71;36.65
53916;BME280;39827;49.652;18.770;2023-04-15T09:10:46;72789.19;;;-149.71;37.62
53916;BME280;39827;49.652;18.770;2023-04-15T09:13:12;72815.28;;;-149.71;38.01
53916;BME280;39827;49.652;18.770;2023-04-15T09:15:38;72801.22;;;-149.71;38.21
53916;BME280;39827;49.652;18.770;2023-04-15T09:18:04;72853.44;;;-149.71;39.43
53916;BME280;39827;49.652;18.770;2023-04-15T09:20:38;72865.50;;;-149.71;40.09
53916;BME280;39827;49.652;18.770;2023-04-15T09:23:14;72865.50;;;-149.71;39.90
53916;BME280;39827;49.652;18.770;2023-04-15T09:25:40;72845.41;;;-149.71;39.63
53916;BME280;39827;49.652;18.770;2023-04-15T09:28:09;72831.34;;;-149.71;39.56
53916;BME280;39827;49.652;18.770;2023-04-15T09:30:35;72845.41;;;-149.71;39.48
53916;BME280;39827;49.652;18.770;2023-04-15T09:33:02;72875.53;;;-149.71;40.05
53916;BME280;39827;49.652;18.770;2023-04-15T09:35:33;72873.53;;;-149.71;40.68
53916;BME280;39827;49.652;18.770;2023-04-15T09:38:10;72913.69;;;-149.71;39.56
53916;BME280;39827;49.652;18.770;2023-04-15T09:40:39;72905.66;;;-149.71;40.30
53916;BME280;39827;49.652;18.770;2023-04-15T09:43:06;72909.69;;;-149.71;41.44
53916;BME280;39827;49.652;18.770;2023-04-15T09:45:33;72901.66;;;-149.71;39.73
53916;BME280;39827;49.652;18.770;2023-04-15T09:48:14;72905.66;;;-149.71;39.89
53916;BME280;39827;49.652;18.770;2023-04-15T09:50:41;72873.53;;;-149.71;39.09
53916;BME280;39827;49.652;18.770;2023-04-15T09:53:09;72841.41;;;-149.71;37.92
53916;BME280;39827;49.652;18.770;2023-04-15T09:55:35;72841.41;;;-149.71;38.12
53916;BME280;39827;49.652;18.770;2023-04-15T09:58:00;72781.16;;;-149.71;37.82
53916;BME280;39827;49.652;18.770;2023-04-15T10:00:27;72666.66;;;-149.71;36.96
53916;BME280;39827;49.652;18.770;2023-04-15T10:02:53;72504.00;;;-149.71;36.14
53916;BME280;39827;49.652;18.770;2023-04-15T10:05:19;72628.50;;;-149.71;34.93
53916;BME280;39827;49.652;18.770;2023-04-15T10:07:45;72648.59;;;-149.71;35.72
53916;BME280;39827;49.652;18.770;2023-04-15T10:10:11;72646.59;;;-149.71;35.98
53916;BME280;39827;49.652;18.770;2023-04-15T10:12:39;72652.63;;;-149.71;36.61
53916;BME280;39827;49.652;18.770;2023-04-15T10:15:11;72648.59;;;-149.71;36.69
53916;BME280;39827;49.652;18.770;2023-04-15T10:17:40;72662.66;;;-149.71;37.30
53916;BME280;39827;49.652;18.770;2023-04-15T10:20:08;72688.75;;;-149.71;35.56
53916;BME280;39827;49.652;18.770;2023-04-15T10:22:35;72757.03;;;-149.71;35.64
53916;BME280;39827;49.652;18.770;2023-04-15T10:25:01;72757.03;;;-149.71;35.40
53916;BME280;39827;49.652;18.770;2023-04-15T10:27:28;72670.69;;;-149.71;35.16
53916;BME280;39827;49.652;18.770;2023-04-15T10:29:55;72732.94;;;-149.71;34.62
53916;BME280;39827;49.652;18.770;2023-04-15T10:32:21;72662.66;;;-149.71;35.60
53916;BME280;39827;49.652;18.770;2023-04-15T10:34:48;72574.28;;;-149.71;36.18
53916;BME280;39827;49.652;18.770;2023-04-15T10:37:33;72475.88;;;-149.71;33.55
53916;BME280;39827;49.652;18.770;2023-04-15T10:39:59;72526.09;;;-149.71;32.77
53916;BME280;39827;49.652;18.770;2023-04-15T10:42:33;72590.34;;;-149.71;33.88
53916;BME280;39827;49.652;18.770;2023-04-15T10:44:59;72618.47;;;-149.71;34.57
53916;BME280;39827;49.652;18.770;2023-04-15T10:47:25;72568.25;;;-149.71;34.23
53916;BME280;39827;49.652;18.770;2023-04-15T10:49:57;72403.59;;;-149.71;33.42
53916;BME280;39827;49.652;18.770;2023-04-15T10:52:25;72544.16;;;-149.71;33.19
53916;BME280;39827;49.652;18.770;2023-04-15T10:55:02;72544.16;;;-149.71;32.64
53916;BME280;39827;49.652;18.770;2023-04-15T10:57:34;72435.72;;;-149.71;32.71
53916;BME280;39827;49.652;18.770;2023-04-15T11:00:10;72487.94;;;-149.71;32.93
53916;BME280;39827;49.652;18.770;2023-04-15T11:05:08;72473.88;;;-149.71;32.96
53916;BME280;39827;49.652;18.770;2023-04-15T11:12:43;72638.56;;;-149.71;33.27
53916;BME280;39827;49.652;18.770;2023-04-15T11:15:34;72664.66;;;-149.71;34.26
53916;BME280;39827;49.652;18.770;2023-04-15T11:20:36;72694.78;;;-149.71;33.85
53916;BME280;39827;49.652;18.770;2023-04-15T11:23:03;72720.91;;;-149.71;34.05
53916;BME280;39827;49.652;18.770;2023-04-15T11:25:30;72726.91;;;-149.71;34.77
53916;BME280;39827;49.652;18.770;2023-04-15T11:27:57;72574.28;;;-149.71;32.99
53916;BME280;39827;49.652;18.770;2023-04-15T11:30:25;72461.81;;;-149.71;33.50
53916;BME280;39827;49.652;18.770;2023-04-15T11:32:53;72576.28;;;-149.71;32.76
53916;BME280;39827;49.652;18.770;2023-04-15T11:35:18;72514.03;;;-149.71;32.78
53916;BME280;39827;49.652;18.770;2023-04-15T11:37:45;72516.06;;;-149.71;33.31
53916;BME280;39827;49.652;18.770;2023-04-15T11:40:11;72552.19;;;-149.71;33.48
53916;BME280;39827;49.652;18.770;2023-04-15T11:42:38;72594.38;;;-149.71;32.85
53916;BME280;39827;49.652;18.770;2023-04-15T11:47:37;72652.63;;;-149.71;34.28
53916;BME280;39827;49.652;18.770;2023-04-15T11:53:04;72612.44;;;-149.71;33.62
53916;BME280;39827;49.652;18.770;2023-04-15T11:55:30;72471.88;;;-149.71;33.40
53916;BME280;39827;49.652;18.770;2023-04-15T11:58:09;72471.88;;;-149.71;33.22
53916;BME280;39827;49.652;18.770;2023-04-15T12:00:36;72479.91;;;-149.71;33.69
53916;BME280;39827;49.652;18.770;2023-04-15T12:06:14;72305.19;;;-149.71;31.37
53916;BME280;39827;49.652;18.770;2023-04-15T12:09:10;72114.41;;;-149.71;31.66
53916;BME280;39827;49.652;18.770;2023-04-15T12:14:11;72305.19;;;-149.71;30.60
53916;BME280;39827;49.652;18.770;2023-04-15T12:16:53;72359.41;;;-149.71;31.35
53916;BME280;39827;49.652;18.770;2023-04-15T12:21:50;72259.00;;;-149.71;30.26
53916;BME280;39827;49.652;18.770;2023-04-15T12:24:19;72154.56;;;-149.71;30.53
53916;BME280;39827;49.652;18.770;2023-04-15T12:26:48;72236.91;;;-149.71;30.74
53916;BME280;39827;49.652;18.770;2023-04-15T12:29:15;72172.66;;;-149.71;30.90
53916;BME280;39827;49.652;18.770;2023-04-15T12:31:55;72126.47;;;-149.71;31.23
53916;BME280;39827;49.652;18.770;2023-04-15T12:34:32;72150.56;;;-149.71;30.71
53916;BME280;39827;49.652;18.770;2023-04-15T12:37:00;72216.84;;;-149.71;31.02
53916;BME280;39827;49.652;18.770;2023-04-15T12:39:28;72299.16;;;-149.71;31.22
53916;BME280;39827;49.652;18.770;2023-04-15T12:41:54;72363.44;;;-149.71;33.04
53916;BME280;39827;49.652;18.770;2023-04-15T12:44:21;72449.78;;;-149.71;33.29
53916;BME280;39827;49.652;18.770;2023-04-15T12:46:48;72485.94;;;-149.71;34.82
53916;BME280;39827;49.652;18.770;2023-04-15T12:49:14;72536.13;;;-149.71;34.83
53916;BME280;39827;49.652;18.770;2023-04-15T12:51:41;72562.25;;;-149.71;35.21